Time;durP1;ratioP1;P1;durP2;ratioP2;P2;SDS_P1;SDS_P2;PMS_P1;PMS_P2;Temp;Humidity;BMP_temperature;BMP_pressure;BME280_temperature;BME280_humidity;BME280_pressure;Samples;Min_cycle;Max_cycle;Signal;HPM_P1;HPM_P2
2022/02/11 00:01:03;;;;;;;6.03;3.13;;;;;;;1.76;100.00;101460.22;679034;29;1105;-48
2022/02/11 00:07:01;;;;;;;6.72;3.33;;;;;;;1.87;100.00;101444.41;681324;28;1044;-49
2022/02/11 00:07:09;;;;;;;6.85;3.40;;;;;;;1.87;100.00;101453.88;672220;28;4304;-49
2022/02/11 00:07:30;;;;;;;7.72;3.60;;;;;;;1.86;100.00;101457.25;680946;28;951;-48
2022/02/11 00:07:55;;;;;;;7.53;3.50;;;;;;;1.86;100.00;101457.25;678008;29;3548;-48
2022/02/11 00:08:16;;;;;;;7.03;3.65;;;;;;;1.87;100.00;101459.03;678639;28;1205;-48
2022/02/11 00:08:36;;;;;;;6.07;3.40;;;;;;;1.87;100.00;101459.03;679289;29;1510;-47
2022/02/11 00:08:58;;;;;;;11.70;3.73;;;;;;;1.86;100.00;101457.25;678269;29;1179;-50
2022/02/11 00:09:18;;;;;;;11.77;3.75;;;;;;;1.86;100.00;101454.66;678745;29;824;-48
2022/02/11 00:09:39;;;;;;;6.18;3.50;;;;;;;1.85;100.00;101460.63;680284;28;928;-48
2022/02/11 00:10:00;;;;;;;5.97;3.45;;;;;;;1.86;100.00;101452.09;677992;28;4315;-48
2022/02/11 00:10:20;;;;;;;6.78;3.50;;;;;;;1.86;100.00;101452.97;676566;29;1018;-50
2022/02/11 00:10:40;;;;;;;6.43;3.80;;;;;;;1.87;100.00;101454.72;674360;29;3240;-48
2022/02/11 00:11:01;;;;;;;7.43;3.97;;;;;;;1.87;100.00;101454.72;675085;29;1989;-49
2022/02/11 00:11:31;;;;;;;7.33;3.50;;;;;;;1.87;100.00;101448.72;675566;29;1443;-48
2022/02/11 00:11:53;;;;;;;6.03;3.30;;;;;;;1.87;100.00;101454.72;677088;29;937;-49
2022/02/11 00:12:14;;;;;;;5.93;3.40;;;;;;;1.88;100.00;101453.03;680580;28;1786;-48
2022/02/11 00:12:35;;;;;;;6.13;3.50;;;;;;;1.89;100.00;101451.34;679445;28;949;-51
2022/02/11 00:12:56;;;;;;;6.83;3.60;;;;;;;1.90;100.00;101459.16;679254;28;4319;-51
2022/02/11 00:13:16;;;;;;;8.32;3.78;;;;;;;1.89;100.00;101448.75;678612;28;1196;-48
2022/02/11 00:13:37;;;;;;;7.13;3.60;;;;;;;1.90;100.00;101454.00;678992;28;3474;-49
2022/02/11 00:13:57;;;;;;;7.43;3.60;;;;;;;1.89;100.00;101451.34;678331;28;1061;-49
2022/02/11 00:14:17;;;;;;;6.70;3.60;;;;;;;1.86;100.00;101454.66;677845;29;1267;-49
2022/02/11 00:14:50;;;;;;;7.13;3.70;;;;;;;1.85;100.00;101450.31;679608;28;1979;-48
2022/02/11 00:15:54;;;;;;;5.60;3.40;;;;;;;1.82;100.00;101452.78;682346;28;4300;-49
2022/02/11 00:16:17;;;;;;;7.03;3.65;;;;;;;1.82;100.00;101457.94;681127;28;3170;-48
2022/02/11 00:16:38;;;;;;;7.10;3.50;;;;;;;1.82;100.00;101463.09;677682;28;3847;-48
2022/02/11 00:16:59;;;;;;;7.18;3.50;;;;;;;1.79;100.00;101461.25;678175;28;1384;-49
2022/02/11 00:17:19;;;;;;;7.13;3.60;;;;;;;1.81;100.00;101453.56;678871;29;809;-49
2022/02/11 00:17:39;;;;;;;7.73;3.90;;;;;;;1.90;100.00;101464.31;678393;29;810;-47
2022/02/11 00:18:00;;;;;;;6.37;3.60;;;;;;;2.03;100.00;101452.81;678993;28;1329;-48
2022/02/11 00:18:21;;;;;;;5.40;3.28;;;;;;;2.12;100.00;101455.78;679001;28;1356;-47
2022/02/11 00:18:41;;;;;;;6.78;3.35;;;;;;;2.17;100.00;101455.97;680511;28;1204;-48
2022/02/11 00:19:02;;;;;;;6.97;3.47;;;;;;;2.14;100.00;101450.69;680388;28;4336;-49
2022/02/11 00:19:23;;;;;;;6.32;3.28;;;;;;;2.13;100.00;101451.50;680247;28;3455;-49
2022/02/11 00:19:43;;;;;;;5.20;2.90;;;;;;;2.08;100.00;101447.84;681082;28;1408;-49
2022/02/11 00:20:04;;;;;;;6.47;3.17;;;;;;;2.09;100.00;101452.19;681174;28;1090;-47
2022/02/11 00:20:25;;;;;;;6.03;3.03;;;;;;;2.15;100.00;101455.03;682199;28;2528;-47
2022/02/11 00:20:47;;;;;;;4.93;2.93;;;;;;;2.15;100.00;101448.16;684170;28;1101;-48
2022/02/11 00:21:07;;;;;;;6.10;3.30;;;;;;;2.09;100.00;101439.28;680274;28;1058;-50
2022/02/11 00:21:29;;;;;;;6.20;3.20;;;;;;;2.07;100.00;101446.09;681911;28;1248;-49
2022/02/11 00:21:50;;;;;;;6.20;3.34;;;;;;;2.01;100.00;101439.84;682207;28;4279;-50
2022/02/11 00:22:11;;;;;;;7.50;3.50;;;;;;;1.98;100.00;101446.56;680197;28;2094;-48
2022/02/11 00:22:31;;;;;;;6.53;3.50;;;;;;;1.95;100.00;101444.75;681945;28;1237;-49
2022/02/11 00:22:52;;;;;;;5.90;3.30;;;;;;;1.94;100.00;101448.16;676977;29;1300;-48
2022/02/11 00:23:13;;;;;;;6.45;3.38;;;;;;;2.07;100.00;101440.94;675548;29;1192;-51
2022/02/11 00:23:37;;;;;;;6.75;3.72;;;;;;;2.10;100.00;101441.06;676258;29;1078;-49
2022/02/11 00:23:58;;;;;;;6.60;3.83;;;;;;;2.09;100.00;101454.75;673824;29;1507;-50
2022/02/11 00:24:18;;;;;;;6.30;3.40;;;;;;;2.06;100.00;101445.19;672047;29;1063;-49
2022/02/11 00:24:39;;;;;;;7.15;3.50;;;;;;;2.03;100.00;101440.78;673690;29;4125;-50
2022/02/11 00:24:59;;;;;;;7.60;3.50;;;;;;;2.00;100.00;101437.22;677524;28;4307;-48
2022/02/11 00:25:20;;;;;;;7.13;3.80;;;;;;;1.97;100.00;101439.66;679117;28;1173;-47
2022/02/11 00:25:47;;;;;;;8.48;3.95;;;;;;;1.94;100.00;101447.25;676833;29;1303;-48
2022/02/11 00:26:08;;;;;;;5.70;3.42;;;;;;;1.96;100.00;101438.75;678314;28;1005;-47
2022/02/11 00:26:33;;;;;;;6.47;3.83;;;;;;;1.93;100.00;101445.50;677833;28;1089;-48
2022/02/11 00:27:30;;;;;;;7.15;3.88;;;;;;;1.91;100.00;101442.88;678941;28;1138;-47
2022/02/11 00:29:03;;;;;;;7.80;3.90;;;;;;;1.90;100.00;101443.66;681010;28;4859;-48
2022/02/11 00:31:09;;;;;;;6.93;3.97;;;;;;;1.82;100.00;101448.47;680065;28;4604;-51
2022/02/11 00:31:50;;;;;;;6.82;4.00;;;;;;;2.04;100.00;101441.69;675906;29;1768;-48
2022/02/11 00:32:39;;;;;;;7.78;3.90;;;;;;;2.16;100.00;101436.13;675957;29;1031;-48
2022/02/11 00:33:09;;;;;;;6.28;3.92;;;;;;;2.09;100.00;101447.03;677994;28;1994;-49
2022/02/11 00:33:32;;;;;;;6.70;3.90;;;;;;;2.06;100.00;101444.31;680648;28;1159;-47
2022/02/11 00:33:56;;;;;;;7.45;4.20;;;;;;;2.00;100.00;101443.22;680031;28;4571;-49
2022/02/11 00:34:19;;;;;;;7.15;4.40;;;;;;;1.99;100.00;101443.19;680440;28;1225;-48
2022/02/11 00:34:52;;;;;;;6.47;4.00;;;;;;;2.03;100.00;101445.06;680064;28;1906;-48
2022/02/11 00:36:02;;;;;;;7.53;4.40;;;;;;;2.01;100.00;101438.97;669614;29;1823;-48
2022/02/11 00:36:30;;;;;;;7.20;4.47;;;;;;;1.97;100.00;101442.25;668427;29;2333;-48
2022/02/11 00:37:03;;;;;;;8.40;4.50;;;;;;;1.93;100.00;101443.78;677153;28;4438;-48
2022/02/11 00:37:25;;;;;;;6.88;4.18;;;;;;;1.92;100.00;101446.31;677981;29;1070;-49
2022/02/11 00:37:46;;;;;;;7.32;4.25;;;;;;;1.90;100.00;101443.66;678218;29;1145;-47
2022/02/11 00:38:13;;;;;;;7.00;4.10;;;;;;;1.90;100.00;101446.25;677892;28;1102;-49
2022/02/11 00:38:55;;;;;;;8.20;4.60;;;;;;;1.83;100.00;101441.66;678222;29;1074;-49
2022/02/11 00:40:53;;;;;;;6.57;4.18;;;;;;;1.94;100.00;101449.81;678513;28;4307;-49
2022/02/11 00:41:16;;;;;;;8.02;4.20;;;;;;;1.91;100.00;101444.53;672215;29;1342;-47
2022/02/11 00:43:46;;;;;;;6.72;4.50;;;;;;;1.85;100.00;101451.19;676360;28;4900;-48
2022/02/11 00:46:06;;;;;;;7.50;4.27;;;;;;;1.98;100.00;101444.88;681700;28;1224;-47
2022/02/11 01:02:08;;;;;;;9.07;5.20;;;;;;;1.68;100.00;101455.63;680972;28;3460;-48
2022/02/11 01:03:02;;;;;;;9.07;5.40;;;;;;;1.64;100.00;101461.44;676736;29;984;-49
2022/02/11 01:03:34;;;;;;;9.00;5.55;;;;;;;1.67;100.00;101453.84;674975;29;1110;-49
2022/02/11 01:04:16;;;;;;;8.85;5.55;;;;;;;1.75;100.00;101466.22;682519;28;1045;-49
2022/02/11 01:04:36;;;;;;;8.50;5.38;;;;;;;1.75;100.00;101463.63;681869;28;3536;-47
2022/02/11 01:04:57;;;;;;;10.10;5.85;;;;;;;1.72;100.00;101466.06;679869;28;1312;-49
2022/02/11 01:05:17;;;;;;;9.10;5.60;;;;;;;1.70;100.00;101466.00;681788;28;922;-48
2022/02/11 01:05:38;;;;;;;10.02;5.55;;;;;;;1.70;100.00;101466.88;682296;28;1142;-48
2022/02/11 01:05:58;;;;;;;8.57;5.60;;;;;;;1.69;100.00;101465.13;677617;28;1180;-49
2022/02/11 01:06:18;;;;;;;10.03;6.17;;;;;;;1.72;100.00;101463.47;678689;29;1125;-48
2022/02/11 01:06:40;;;;;;;10.73;6.23;;;;;;;1.74;100.00;101462.72;678934;29;1145;-49
2022/02/11 01:07:00;;;;;;;8.68;5.30;;;;;;;1.75;100.00;101463.63;677325;28;4487;-50
2022/02/11 01:07:20;;;;;;;9.10;5.38;;;;;;;1.72;100.00;101460.91;678283;28;2380;-48
2022/02/11 01:07:41;;;;;;;9.40;5.70;;;;;;;1.70;100.00;101461.72;678711;28;1373;-48
2022/02/11 01:08:01;;;;;;;8.85;5.93;;;;;;;1.68;100.00;101460.78;680167;28;1340;-48
2022/02/11 01:08:22;;;;;;;9.53;5.77;;;;;;;1.68;100.00;101460.78;681103;28;1116;-49
2022/02/11 01:08:42;;;;;;;8.68;5.47;;;;;;;1.66;100.00;101457.25;681438;28;1237;-47
2022/02/11 01:09:04;;;;;;;9.53;5.67;;;;;;;1.68;100.00;101467.63;681411;28;1066;-48
2022/02/11 01:09:24;;;;;;;10.25;6.00;;;;;;;1.68;100.00;101462.47;680549;28;1121;-50
2022/02/11 01:09:45;;;;;;;10.37;5.90;;;;;;;1.68;100.00;101465.06;681518;28;1275;-48
2022/02/11 01:10:06;;;;;;;8.93;5.63;;;;;;;1.68;100.00;101471.09;677831;28;4631;-48
2022/02/11 01:10:27;;;;;;;9.82;5.75;;;;;;;1.68;100.00;101467.63;678810;28;3077;-48
2022/02/11 01:10:47;;;;;;;10.02;5.93;;;;;;;1.67;100.00;101466.72;677851;29;1675;-49
2022/02/11 01:11:17;;;;;;;9.88;5.80;;;;;;;1.70;100.00;101461.72;677217;28;1549;-49
2022/02/11 01:11:45;;;;;;;9.93;5.50;;;;;;;1.69;100.00;101465.13;678706;29;1691;-49
2022/02/11 01:12:06;;;;;;;8.90;5.55;;;;;;;1.69;100.00;101459.97;681690;28;1121;-48
2022/02/11 01:12:28;;;;;;;8.35;5.90;;;;;;;1.70;100.00;101472.03;682053;28;1041;-48
2022/02/11 01:12:49;;;;;;;8.80;5.70;;;;;;;1.72;100.00;101468.63;681293;28;4813;-49
2022/02/11 01:13:09;;;;;;;9.67;5.60;;;;;;;1.72;100.00;101468.63;680674;28;2178;-49
2022/02/11 01:13:30;;;;;;;10.40;5.88;;;;;;;1.72;100.00;101469.53;680844;28;1267;-47
2022/02/11 01:13:50;;;;;;;9.87;5.90;;;;;;;1.68;100.00;101465.94;681630;28;1281;-48
2022/02/11 01:14:11;;;;;;;10.27;5.93;;;;;;;1.66;100.00;101465.00;681297;28;1105;-50
2022/02/11 01:14:42;;;;;;;12.23;5.93;;;;;;;1.62;100.00;101465.66;682967;28;1919;-48
2022/02/11 01:15:04;;;;;;;9.77;5.72;;;;;;;1.61;100.00;101471.63;681273;28;1093;-47
2022/02/11 01:15:27;;;;;;;9.65;5.60;;;;;;;1.65;100.00;101462.34;682986;28;1054;-49
2022/02/11 01:15:55;;;;;;;9.23;5.93;;;;;;;1.68;100.00;101467.63;679479;28;4742;-48
2022/02/11 01:16:21;;;;;;;9.73;5.75;;;;;;;1.72;100.00;101466.06;680241;28;1060;-47
2022/02/11 01:16:50;;;;;;;9.48;6.25;;;;;;;1.73;100.00;101462.66;682071;28;2795;-48
2022/02/11 01:17:33;;;;;;;9.07;6.05;;;;;;;1.69;100.00;101464.25;680662;28;1203;-48
2022/02/11 01:17:57;;;;;;;9.40;5.78;;;;;;;1.69;100.00;101467.69;681813;28;2898;-47
2022/02/11 01:18:18;;;;;;;8.95;5.68;;;;;;;1.68;100.00;101463.34;681907;28;1145;-49
2022/02/11 01:18:41;;;;;;;9.73;5.70;;;;;;;1.73;100.00;101465.25;680758;28;3267;-48
2022/02/11 01:19:13;;;;;;;8.73;5.68;;;;;;;1.75;100.00;101479.09;677917;28;4570;-48
2022/02/11 01:21:01;;;;;;;10.70;6.25;;;;;;;1.70;100.00;101472.03;678367;28;1385;-49
2022/02/11 01:21:04;;;;;;;10.27;5.70;;;;;;;1.67;100.00;101471.00;672756;28;1315;-48
2022/02/11 01:21:34;;;;;;;10.45;5.88;;;;;;;1.62;100.00;101467.34;682255;28;3264;-49
2022/02/11 01:22:05;;;;;;;12.10;5.88;;;;;;;1.57;100.00;101474.88;679055;28;5231;-49
2022/02/11 01:22:42;;;;;;;9.95;5.88;;;;;;;1.57;100.00;101461.13;680570;28;905;-48
2022/02/11 01:23:57;;;;;;;11.73;6.07;;;;;;;1.75;100.00;101467.09;680592;28;1161;-48
2022/02/11 01:25:10;;;;;;;10.38;6.22;;;;;;;1.67;100.00;101466.72;681540;28;1994;-48
2022/02/11 01:27:52;;;;;;;9.18;5.90;;;;;;;1.52;100.00;101471.22;680873;28;1337;-48
2022/02/11 01:28:33;;;;;;;11.23;6.18;;;;;;;1.47;100.00;101467.56;680553;28;5024;-49
2022/02/11 01:29:58;;;;;;;11.52;6.45;;;;;;;1.52;100.00;101473.78;681573;28;1140;-50
2022/02/11 01:31:57;;;;;;;11.57;6.50;;;;;;;1.46;100.00;101470.94;681882;28;1081;-49
2022/02/11 01:33:50;;;;;;;10.48;6.85;;;;;;;1.42;100.00;101461.31;680916;28;1362;-48
2022/02/11 01:34:50;;;;;;;12.07;6.55;;;;;;;1.41;100.00;101462.13;679834;28;5020;-48
2022/02/11 01:37:17;;;;;;;11.57;7.28;;;;;;;1.39;100.00;101466.34;681382;28;1339;-48
2022/02/11 01:37:32;;;;;;;11.82;6.60;;;;;;;1.34;100.00;101466.09;679965;28;6109;-48
2022/02/11 01:38:09;;;;;;;9.80;6.82;;;;;;;1.39;100.00;101463.75;682792;28;1012;-49
2022/02/11 01:39:39;;;;;;;11.07;7.00;;;;;;;1.42;100.00;101463.88;680832;28;1267;-48
2022/02/11 01:40:20;;;;;;;10.43;6.88;;;;;;;1.39;100.00;101462.03;681606;28;5126;-49
2022/02/11 01:47:19;;;;;;;12.68;7.60;;;;;;;1.06;100.00;101458.81;681059;28;3145;-48
2022/02/11 01:50:04;;;;;;;11.82;7.25;;;;;;;0.99;100.00;101453.34;676229;29;1263;-49
2022/02/11 01:53:11;;;;;;;13.44;7.28;;;;;;;0.99;100.00;101452.47;682436;28;3294;-50
2022/02/11 01:54:52;;;;;;;10.27;7.10;;;;;;;0.91;100.00;101454.69;675503;29;1910;-48
2022/02/11 01:57:08;;;;;;;15.90;7.63;;;;;;;0.84;100.00;101448.38;677611;28;1322;-48
2022/02/11 02:04:23;;;;;;;12.02;7.65;;;;;;;0.66;100.00;101447.50;683151;28;1045;-49
2022/02/11 02:11:35;;;;;;;12.25;7.15;;;;;;;0.72;100.00;101462.34;680965;28;1403;-50
2022/02/11 02:13:10;;;;;;;12.75;7.65;;;;;;;0.70;100.00;101456.25;680964;28;3060;-47
2022/02/11 02:15:38;;;;;;;13.90;8.00;;;;;;;0.67;100.00;101462.13;680487;28;915;-49
2022/02/11 02:20:05;;;;;;;12.10;7.90;;;;;;;0.60;100.00;101466.09;677195;28;4995;-48
2022/02/11 02:25:02;;;;;;;13.75;8.65;;;;;;;0.56;100.00;101465.88;681550;28;1431;-47
2022/02/11 02:25:36;;;;;;;13.90;9.15;;;;;;;0.57;100.00;101460.81;681218;28;1530;-48
2022/02/11 02:26:12;;;;;;;12.70;8.60;;;;;;;0.59;100.00;101460.88;682216;28;1165;-48
2022/02/11 02:34:36;;;;;;;13.93;8.45;;;;;;;0.52;100.00;101466.53;678356;28;4456;-49
2022/02/11 02:35:21;;;;;;;11.90;8.07;;;;;;;0.51;100.00;101457.91;678469;29;1717;-50
2022/02/11 02:36:41;;;;;;;14.30;8.93;;;;;;;0.43;100.00;101459.22;678836;28;1618;-48
2022/02/11 02:57:54;;;;;;;16.63;9.70;;;;;;;0.23;100.00;101453.97;681115;28;1212;-47
2022/02/11 02:58:18;;;;;;;15.35;9.30;;;;;;;0.22;100.00;101452.22;680228;28;4761;-48
2022/02/11 02:58:46;;;;;;;16.45;9.10;;;;;;;0.23;100.00;101453.97;681529;28;1380;-48
2022/02/11 03:00:57;;;;;;;16.40;9.40;;;;;;;0.28;100.00;101446.50;682316;28;1152;-49
2022/02/11 03:35:10;;;;;;;13.85;8.93;;;;;;;0.29;100.00;101462.03;670918;29;7163;-48
2022/02/11 03:49:17;;;;;;;17.93;10.90;;;;;;;0.16;100.00;101460.50;678025;28;3932;-48
2022/02/11 03:52:08;;;;;;;17.05;10.75;;;;;;;0.16;100.00;101454.50;682372;28;3333;-50
2022/02/11 04:21:04;;;;;;;22.55;12.60;;;;;;;0.51;100.00;101493.94;680700;28;1256;-50
2022/02/11 04:23:59;;;;;;;24.20;12.43;;;;;;;0.53;100.00;101494.00;680817;28;1045;-48
2022/02/11 04:53:50;;;;;;;21.48;10.48;;;;;;;1.50;100.00;101524.38;682346;28;1257;-46
2022/02/11 04:55:23;;;;;;;21.73;9.85;;;;;;;1.43;100.00;101522.34;667857;29;5419;-48
2022/02/11 04:55:45;;;;;;;17.80;9.82;;;;;;;1.42;100.00;101524.03;670586;28;1302;-49
2022/02/11 04:56:06;;;;;;;20.27;10.27;;;;;;;1.42;100.00;101529.19;678890;28;955;-49
2022/02/11 04:56:27;;;;;;;23.03;10.60;;;;;;;1.41;100.00;101529.09;678184;28;1090;-49
2022/02/11 04:56:47;;;;;;;22.63;11.00;;;;;;;1.39;100.00;101528.16;677639;28;3052;-47
2022/02/11 04:59:50;;;;;;;23.35;10.48;;;;;;;1.29;100.00;101527.72;681573;28;3477;-47
2022/02/11 05:00:14;;;;;;;18.95;10.27;;;;;;;1.29;100.00;101530.31;681182;28;1158;-48
2022/02/11 05:00:37;;;;;;;20.90;10.38;;;;;;;1.29;100.00;101530.31;681066;28;1161;-47
2022/02/11 05:00:58;;;;;;;19.48;10.00;;;;;;;1.32;100.00;101527.00;679345;28;4323;-48
2022/02/11 05:01:19;;;;;;;19.95;10.20;;;;;;;1.30;100.00;101529.50;681667;28;1177;-48
2022/02/11 05:01:41;;;;;;;17.87;9.93;;;;;;;1.29;100.00;101527.72;682736;28;1109;-47
2022/02/11 05:02:01;;;;;;;18.80;10.10;;;;;;;1.29;100.00;101526.84;682451;28;1097;-48
2022/02/11 05:02:25;;;;;;;19.73;10.00;;;;;;;1.26;100.00;101519.88;680214;28;3091;-47
2022/02/11 05:02:47;;;;;;;18.70;10.45;;;;;;;1.27;100.00;101526.75;681956;28;3841;-50
2022/02/11 05:03:07;;;;;;;19.58;10.85;;;;;;;1.28;100.00;101527.66;679285;28;1331;-48
2022/02/11 05:03:28;;;;;;;20.57;10.80;;;;;;;1.29;100.00;101524.28;683308;28;1054;-50
2022/02/11 05:03:48;;;;;;;19.30;10.57;;;;;;;1.28;100.00;101525.94;682208;28;4633;-49
2022/02/11 05:04:09;;;;;;;24.60;11.27;;;;;;;1.27;100.00;101531.91;679626;28;2135;-48
2022/02/11 05:04:29;;;;;;;23.13;11.33;;;;;;;1.26;100.00;101525.00;680852;28;1121;-48
2022/02/11 05:04:50;;;;;;;21.00;10.65;;;;;;;1.25;100.00;101525.81;680565;28;1113;-47
2022/02/11 05:05:10;;;;;;;22.73;10.80;;;;;;;1.26;100.00;101514.72;680527;28;3410;-49
2022/02/11 05:05:48;;;;;;;22.67;11.40;;;;;;;1.26;100.00;101525.00;679948;28;2114;-48
2022/02/11 05:06:09;;;;;;;21.15;11.27;;;;;;;1.40;100.00;101528.22;682282;28;1108;-47
2022/02/11 05:06:30;;;;;;;23.15;10.98;;;;;;;1.37;100.00;101528.06;682603;28;1173;-47
2022/02/11 05:06:50;;;;;;;22.10;11.05;;;;;;;1.35;100.00;101528.00;681671;28;4387;-47
2022/02/11 05:07:11;;;;;;;21.87;10.90;;;;;;;1.34;100.00;101528.84;680904;28;1244;-48
2022/02/11 05:07:32;;;;;;;24.20;11.23;;;;;;;1.33;100.00;101527.06;684105;28;1057;-47
2022/02/11 05:07:52;;;;;;;25.02;11.07;;;;;;;1.32;100.00;101530.44;682572;28;1248;-48
2022/02/11 05:08:12;;;;;;;22.03;11.03;;;;;;;1.41;100.00;101531.69;681048;28;3480;-49
2022/02/11 05:08:33;;;;;;;20.00;11.07;;;;;;;1.42;100.00;101525.72;680935;28;1058;-49
2022/02/11 05:08:54;;;;;;;19.98;11.02;;;;;;;1.42;100.00;101536.03;682125;28;1117;-51
2022/02/11 05:09:14;;;;;;;19.23;10.60;;;;;;;1.40;100.00;101527.34;681189;28;1151;-48
2022/02/11 05:09:35;;;;;;;21.73;10.70;;;;;;;1.40;100.00;101535.06;682781;28;1237;-48
2022/02/11 05:09:55;;;;;;;19.93;10.77;;;;;;;1.39;100.00;101530.75;679253;28;4518;-48
2022/02/11 05:10:16;;;;;;;21.63;11.00;;;;;;;1.42;100.00;101536.03;679617;28;1323;-49
2022/02/11 05:10:36;;;;;;;21.58;11.02;;;;;;;1.41;100.00;101534.25;681378;28;1351;-48
2022/02/11 05:10:58;;;;;;;23.57;11.13;;;;;;;1.40;100.00;101533.38;678013;28;3177;-49
2022/02/11 05:11:18;;;;;;;22.13;11.02;;;;;;;1.42;100.00;101538.59;677449;28;3618;-47
2022/02/11 05:11:39;;;;;;;23.27;11.25;;;;;;;1.49;100.00;101541.53;678768;28;1149;-47
2022/02/11 05:11:59;;;;;;;25.20;11.23;;;;;;;1.54;100.00;101536.59;679507;28;1102;-48
2022/02/11 05:12:19;;;;;;;23.17;11.47;;;;;;;1.53;100.00;101534.81;679294;28;1297;-48
2022/02/11 05:12:42;;;;;;;21.75;10.80;;;;;;;1.51;100.00;101534.75;680610;28;1264;-48
2022/02/11 05:13:02;;;;;;;21.30;10.77;;;;;;;1.48;100.00;101529.47;679241;28;4284;-48
2022/02/11 05:13:24;;;;;;;19.03;10.83;;;;;;;1.47;100.00;101537.13;679482;28;1107;-48
2022/02/11 05:13:44;;;;;;;18.92;11.15;;;;;;;1.48;100.00;101542.34;679457;28;1904;-48
2022/02/11 05:14:05;;;;;;;20.87;11.07;;;;;;;1.52;100.00;101528.81;680195;28;4631;-48
2022/02/11 05:14:26;;;;;;;21.95;11.40;;;;;;;1.55;100.00;101533.19;681198;28;1414;-48
2022/02/11 05:14:46;;;;;;;22.15;11.18;;;;;;;1.54;100.00;101539.19;683359;28;1906;-49
2022/02/11 05:15:09;;;;;;;22.07;11.30;;;;;;;1.54;100.00;101534.03;680325;28;1379;-49
2022/02/11 05:15:31;;;;;;;21.67;11.35;;;;;;;1.52;100.00;101535.63;682092;28;1759;-51
2022/02/11 05:15:52;;;;;;;24.27;11.50;;;;;;;1.52;100.00;101541.69;679294;28;4556;-49
2022/02/11 05:16:12;;;;;;;23.42;11.13;;;;;;;1.51;100.00;101537.34;677754;28;1113;-50
2022/02/11 05:16:34;;;;;;;19.43;10.73;;;;;;;1.56;100.00;101540.13;676493;29;3226;-48
2022/02/11 05:16:54;;;;;;;19.45;10.70;;;;;;;1.63;100.00;101534.41;673140;29;3719;-48
2022/02/11 05:17:15;;;;;;;21.93;11.13;;;;;;;1.65;100.00;101539.69;672766;29;1299;-47
2022/02/11 05:17:43;;;;;;;21.00;10.77;;;;;;;1.63;100.00;101528.41;673362;29;1146;-49
2022/02/11 05:18:04;;;;;;;22.05;10.77;;;;;;;1.64;100.00;101537.91;674841;29;939;-47
2022/02/11 05:18:25;;;;;;;20.05;10.70;;;;;;;1.63;100.00;101538.72;677277;29;1475;-48
2022/02/11 05:18:45;;;;;;;20.97;10.13;;;;;;;1.68;100.00;101538.09;679209;28;1320;-48
2022/02/11 05:19:05;;;;;;;20.80;10.57;;;;;;;1.68;100.00;101538.09;679409;28;4279;-48
2022/02/11 05:19:26;;;;;;;20.50;10.83;;;;;;;1.67;100.00;101538.91;680123;28;1879;-48
2022/02/11 05:19:46;;;;;;;19.87;10.87;;;;;;;1.66;100.00;101537.16;675916;29;2124;-49
2022/02/11 05:20:08;;;;;;;21.17;11.20;;;;;;;1.65;100.00;101542.25;673689;29;1266;-48
2022/02/11 05:20:29;;;;;;;21.08;10.75;;;;;;;1.63;100.00;101541.28;673341;29;1102;-48
2022/02/11 05:20:49;;;;;;;21.20;10.82;;;;;;;1.62;100.00;101540.41;676497;29;1096;-48
2022/02/11 05:21:10;;;;;;;21.13;11.00;;;;;;;1.61;100.00;101537.78;670741;29;1322;-48
2022/02/11 05:21:30;;;;;;;21.88;11.02;;;;;;;1.60;100.00;101542.03;673083;29;1129;-48
2022/02/11 05:21:50;;;;;;;23.43;10.93;;;;;;;1.65;100.00;101534.53;671864;29;4486;-49
2022/02/11 05:22:11;;;;;;;22.23;10.50;;;;;;;1.66;100.00;101537.16;670456;29;3303;-48
2022/02/11 05:22:32;;;;;;;24.17;11.20;;;;;;;1.65;100.00;101542.25;670893;29;3767;-48
2022/02/11 05:22:52;;;;;;;21.17;10.93;;;;;;;1.62;100.00;101540.41;671176;29;1134;-49
2022/02/11 05:23:14;;;;;;;20.08;10.88;;;;;;;1.61;100.00;101532.63;674094;29;1181;-48
2022/02/11 05:23:35;;;;;;;24.58;10.68;;;;;;;1.59;100.00;101539.38;674961;29;1237;-48
2022/02/11 05:23:55;;;;;;;20.48;10.57;;;;;;;1.58;100.00;101538.50;676120;29;1169;-49
2022/02/11 05:24:16;;;;;;;18.80;10.43;;;;;;;1.57;100.00;101536.75;677535;28;1130;-48
2022/02/11 05:24:36;;;;;;;19.20;10.70;;;;;;;1.57;100.00;101535.88;676613;29;1613;-48
2022/02/11 05:25:00;;;;;;;18.77;10.60;;;;;;;1.62;100.00;101542.09;675633;29;4495;-47
2022/02/11 05:25:20;;;;;;;18.05;10.27;;;;;;;1.68;100.00;101532.94;675390;28;4479;-49
2022/02/11 05:25:42;;;;;;;18.43;10.60;;;;;;;1.83;100.00;101540.50;675860;29;1819;-48
2022/02/11 05:26:02;;;;;;;19.05;10.13;;;;;;;1.79;100.00;101537.72;676899;28;1384;-48
2022/02/11 05:26:23;;;;;;;20.25;10.43;;;;;;;1.75;100.00;101541.84;676094;29;1403;-48
2022/02/11 05:26:43;;;;;;;19.13;10.43;;;;;;;1.74;100.00;101545.22;673750;29;1399;-49
2022/02/11 05:27:04;;;;;;;19.77;10.45;;;;;;;1.74;100.00;101541.78;671028;29;1250;-48
2022/02/11 05:27:24;;;;;;;22.67;11.37;;;;;;;1.74;100.00;101545.22;670779;29;1096;-48
2022/02/11 05:27:45;;;;;;;21.63;10.98;;;;;;;1.71;100.00;101545.09;673190;29;1324;-48
2022/02/11 05:28:06;;;;;;;19.57;10.60;;;;;;;1.69;100.00;101539.88;669438;29;4471;-49
2022/02/11 05:28:27;;;;;;;20.95;10.68;;;;;;;1.67;100.00;101546.63;673335;29;1572;-50
2022/02/11 05:28:47;;;;;;;20.90;11.00;;;;;;;1.72;100.00;101548.53;673415;29;1319;-48
2022/02/11 05:29:07;;;;;;;21.55;10.88;;;;;;;1.70;100.00;101548.47;675548;29;1313;-50
2022/02/11 05:29:28;;;;;;;20.17;10.50;;;;;;;1.75;100.00;101549.59;676282;29;1505;-48
2022/02/11 05:29:48;;;;;;;19.52;10.25;;;;;;;1.73;100.00;101547.75;676590;28;1603;-48
2022/02/11 05:30:09;;;;;;;21.27;10.50;;;;;;;1.70;100.00;101546.81;676200;29;1120;-48
2022/02/11 05:30:31;;;;;;;20.98;9.90;;;;;;;1.67;100.00;101548.34;676414;28;1245;-47
2022/02/11 05:30:51;;;;;;;23.30;9.90;;;;;;;1.67;100.00;101543.19;677965;28;4498;-47
2022/02/11 05:31:11;;;;;;;23.40;10.97;;;;;;;1.66;100.00;101555.22;678772;28;1192;-48
2022/02/11 05:31:32;;;;;;;20.05;10.85;;;;;;;1.69;100.00;101547.59;678001;28;1298;-50
2022/02/11 05:31:52;;;;;;;19.53;10.60;;;;;;;1.74;100.00;101545.22;680407;28;1205;-48
2022/02/11 05:32:12;;;;;;;20.75;11.05;;;;;;;1.81;100.00;101542.09;681159;28;1024;-48
2022/02/11 05:32:33;;;;;;;21.03;10.97;;;;;;;1.81;100.00;101541.25;680221;28;1202;-48
2022/02/11 05:32:53;;;;;;;20.02;10.35;;;;;;;1.85;100.00;101548.31;679368;28;1240;-48
2022/02/11 05:33:14;;;;;;;20.40;10.53;;;;;;;1.84;100.00;101546.53;678763;28;1421;-48
2022/02/11 05:33:34;;;;;;;22.30;10.93;;;;;;;1.81;100.00;101551.56;678486;29;3039;-48
2022/02/11 05:33:55;;;;;;;23.20;11.30;;;;;;;1.79;100.00;101542.88;673420;29;4664;-48
2022/02/11 05:34:15;;;;;;;21.52;10.65;;;;;;;1.90;100.00;101549.41;675512;29;1158;-48
2022/02/11 05:34:35;;;;;;;23.37;10.70;;;;;;;1.88;100.00;101548.44;676427;29;1107;-51
2022/02/11 05:34:56;;;;;;;20.80;10.38;;;;;;;1.94;100.00;101548.72;674491;29;1911;-49
2022/02/11 05:35:16;;;;;;;22.07;10.77;;;;;;;1.92;100.00;101545.19;676492;29;1228;-47
2022/02/11 05:35:39;;;;;;;21.95;10.20;;;;;;;1.88;100.00;101543.28;676437;28;2637;-47
2022/02/11 05:36:00;;;;;;;22.17;10.82;;;;;;;1.86;100.00;101542.34;676499;29;1142;-50
2022/02/11 05:36:20;;;;;;;21.17;10.70;;;;;;;1.84;100.00;101551.69;677034;28;2091;-48
2022/02/11 05:36:41;;;;;;;20.30;10.33;;;;;;;1.87;100.00;101550.13;677706;28;3711;-49
2022/02/11 05:37:02;;;;;;;18.73;9.88;;;;;;;1.89;100.00;101550.19;674941;29;4448;-48
2022/02/11 05:37:24;;;;;;;21.97;10.60;;;;;;;1.88;100.00;101551.00;677772;29;1265;-47
2022/02/11 05:37:44;;;;;;;19.92;10.60;;;;;;;1.88;100.00;101553.59;677419;28;1126;-49
2022/02/11 05:38:04;;;;;;;21.00;10.70;;;;;;;1.85;100.00;101558.63;678978;28;1153;-48
2022/02/11 05:38:25;;;;;;;23.00;10.33;;;;;;;1.83;100.00;101555.97;676588;29;1248;-49
2022/02/11 05:38:45;;;;;;;17.02;9.82;;;;;;;1.83;100.00;101555.09;676312;29;1309;-49
2022/02/11 05:39:06;;;;;;;18.33;10.07;;;;;;;1.88;100.00;101556.16;677691;28;4686;-49
2022/02/11 05:39:26;;;;;;;21.23;9.80;;;;;;;1.92;100.00;101555.50;677685;28;3340;-48
2022/02/11 05:39:46;;;;;;;19.63;9.83;;;;;;;1.91;100.00;101553.75;676511;28;4338;-48